Stolt Shearwater — ZCRD9 — position and weather

sailwx.info

Track history (hours):
 
Tides and Currents Weather Stations Pressure Air Temp Water Temp Dewpoint Dewpoint Depression Visibility Wind Speed Wind Dir Waves Ship Positions

Stolt Shearwater

Last reported at 2017-Aug-22 10:52 UTC. Time now 2017-Aug-22 11:03 UTC.
Position N 43°18' W 010°11'.

Length 96 m; draft 6.6 m.

Type: Ship (hazmat cat C). MMSI: 319402000.

Date/timePositionNaut miles runAvg speedWind from/ knotsBaromVisibWave heightAir tempDewpointWater temp
2017-Aug-22 10:52N 43°18' W 010°11'511.2
2017-Aug-22 10:24N 43°23' W 010°08'1410.7
2017-Aug-22 09:05N 43°35' W 009°59'111.1
2017-Aug-22 09:00N 43°36' W 009°58'1411.2
2017-Aug-22 07:42N 43°49' W 009°48'211.0
2017-Aug-22 07:28N 43°51' W 009°47'510.8
2017-Aug-22 06:59N 43°56' W 009°44'510.8
2017-Aug-22 06:29N 44°01' W 009°40'3810.7
2017-Aug-22 02:54N 44°34' W 009°14'22210.4
2017-Aug-21 05:33N 47°49' W 006°40'610.8
2017-Aug-21 04:58N 47°55' W 006°36'1010.4
2017-Aug-21 03:58N 48°04' W 006°28'10 9.9
2017-Aug-21 02:58N 48°13' W 006°22'11 9.2
2017-Aug-21 01:48N 48°23' W 006°15'118 9.5
2017-Aug-20 13:23N 49°37' W 003°56'410.5
2017-Aug-20 12:59N 49°40' W 003°50'711.3
2017-Aug-20 12:21N 49°43' W 003°41'411.7
2017-Aug-20 12:00N 49°45' W 003°35'612.0
2017-Aug-20 11:30N 49°48' W 003°27'612.1
2017-Aug-20 11:00N 49°51' W 003°19'612.0
2017-Aug-20 10:30N 49°54' W 003°11'611.7
2017-Aug-20 10:00N 49°57' W 003°03'611.3
2017-Aug-20 09:30N 49°60' W 002°55'510.7
2017-Aug-20 09:00N 50°01' W 002°47'33 8.4
2017-Aug-20 05:04N 50°10' W 001°57'1 8.4
2017-Aug-20 04:54N 50°10' W 001°55'4 8.7
2017-Aug-20 04:27N 50°11' W 001°49'4 9.4
2017-Aug-20 04:00N 50°13' W 001°43'510.1
2017-Aug-20 03:31N 50°14' W 001°35'4712.4
2017-Aug-19 23:43N 50°27' W 000°24'211.8
2017-Aug-19 23:30N 50°27' W 000°21'611.5
2017-Aug-19 23:00N 50°29' W 000°12'510.9
2017-Aug-19 22:30N 50°30' W 000°04'510.5
2017-Aug-19 22:00N 50°31' E 000°04'510.2
2017-Aug-19 21:30N 50°33' E 000°12'5 9.5
2017-Aug-19 20:59N 50°34' E 000°19'4 9.0
2017-Aug-19 20:30N 50°36' E 000°26'4 8.6
2017-Aug-19 20:00N 50°37' E 000°32'4 8.1
2017-Aug-19 19:30N 50°39' E 000°38'4 8.1
2017-Aug-19 19:00N 50°41' E 000°43'4 8.1
2017-Aug-19 18:30N 50°44' E 000°48'4 8.7
2017-Aug-19 18:00N 50°47' E 000°53'1610.2
2017-Aug-19 16:28N 50°56' E 001°13'511.4
2017-Aug-19 16:00N 50°60' E 001°19'611.4
2017-Aug-19 15:30N 51°03' E 001°26'510.9
2017-Aug-19 15:01N 51°07' E 001°33'1010.0
2017-Aug-19 14:00N 51°14' E 001°45'5 9.5
2017-Aug-19 13:30N 51°18' E 001°48'5 9.4
2017-Aug-19 13:00N 51°22' E 001°51'5 9.1
2017-Aug-19 12:30N 51°26' E 001°55'4 8.9
2017-Aug-19 12:00N 51°29' E 001°60'4 8.8
2017-Aug-19 11:31N 51°32' E 002°05'5 8.7
2017-Aug-19 10:59N 51°35' E 002°10'4 9.0
2017-Aug-19 10:30N 51°39' E 002°15'7310.9
2017-Aug-19 03:51N 52°51' E 002°05'412.3
2017-Aug-19 03:30N 52°54' E 001°60'612.2
2017-Aug-19 03:00N 52°57' E 001°51'611.8
2017-Aug-19 02:30N 53°00' E 001°43'611.6
2017-Aug-19 02:00N 53°04' E 001°36'611.1
2017-Aug-19 01:31N 53°07' E 001°29'610.8
2017-Aug-19 01:00N 53°11' E 001°21'510.6
2017-Aug-19 00:30N 53°14' E 001°14'5210.3
2017-Aug-18 19:30N 53°36' W 000°04'611.2
2017-Aug-18 19:00N 53°39' W 000°12'5 9.8
2017-Aug-18 18:30N 53°44' W 000°15'0 0.0
2017-Aug-18 18:00N 53°44' W 000°15'0 0.0
2017-Aug-18 17:29N 53°44' W 000°15'0 0.0
2017-Aug-18 16:59N 53°44' W 000°15'0 0.0
2017-Aug-18 16:29N 53°44' W 000°15'0 0.0
2017-Aug-18 15:59N 53°44' W 000°15'0 0.0
2017-Aug-18 15:29N 53°44' W 000°15'0 0.0
2017-Aug-18 14:59N 53°44' W 000°15'0 0.0
2017-Aug-18 14:29N 53°44' W 000°15'0 0.0
2017-Aug-18 13:30N 53°44' W 000°15'0 0.0
2017-Aug-18 13:00N 53°44' W 000°15'0 0.0
2017-Aug-18 12:30N 53°44' W 000°15'0 0.0
2017-Aug-18 11:59N 53°44' W 000°15'0 0.0
2017-Aug-18 11:30N 53°44' W 000°15'0 0.0
2017-Aug-18 11:00N 53°44' W 000°15'0 0.0
2017-Aug-18 10:30N 53°44' W 000°15'0 0.0
2017-Aug-18 10:00N 53°44' W 000°15'0 0.0
2017-Aug-18 09:30N 53°44' W 000°15'0 0.0
2017-Aug-18 09:00N 53°44' W 000°15'0 0.0
2017-Aug-18 08:30N 53°44' W 000°15'0 0.0
2017-Aug-18 08:00N 53°44' W 000°15'0 0.0
2017-Aug-18 07:30N 53°44' W 000°15'0 0.0
2017-Aug-18 07:00N 53°44' W 000°15'0 0.0
2017-Aug-18 06:30N 53°44' W 000°15'0 0.0
2017-Aug-18 06:00N 53°44' W 000°15'0 0.0
2017-Aug-18 05:30N 53°44' W 000°15'0 0.0
2017-Aug-18 05:00N 53°44' W 000°15'0 0.0
2017-Aug-18 04:30N 53°44' W 000°15'0 0.0
2017-Aug-18 04:00N 53°44' W 000°15'0 0.0
2017-Aug-18 03:30N 53°44' W 000°15'0 0.0
2017-Aug-18 03:00N 53°44' W 000°15'0 0.0
2017-Aug-18 02:30N 53°44' W 000°15'0 0.0
2017-Aug-18 02:00N 53°44' W 000°15'0 0.0
2017-Aug-18 01:30N 53°44' W 000°15'0 0.0
2017-Aug-18 01:00N 53°44' W 000°15'0 0.0
2017-Aug-18 00:30N 53°44' W 000°15'0 0.0
2017-Aug-18 00:00N 53°44' W 000°15'0 0.0
2017-Aug-17 23:30N 53°44' W 000°15'0 0.0
2017-Aug-17 23:00N 53°44' W 000°15'0 0.0
2017-Aug-17 22:30N 53°44' W 000°15'0 0.0
2017-Aug-17 22:00N 53°44' W 000°15'0 0.0
2017-Aug-17 21:30N 53°44' W 000°15'0 0.0
2017-Aug-17 21:00N 53°44' W 000°15'0 0.0
2017-Aug-17 20:30N 53°44' W 000°15'0 0.0
2017-Aug-17 20:00N 53°44' W 000°15'0 0.0
2017-Aug-17 19:30N 53°44' W 000°15'0 0.0
2017-Aug-17 19:00N 53°44' W 000°15'0 0.0
2017-Aug-17 18:30N 53°44' W 000°15'0 0.0
2017-Aug-17 17:59N 53°44' W 000°15'0 0.0
2017-Aug-17 17:29N 53°44' W 000°15'0 0.0
2017-Aug-17 16:59N 53°44' W 000°15'0 0.0
2017-Aug-17 16:29N 53°44' W 000°15'0 0.0
2017-Aug-17 16:00N 53°44' W 000°15'2 3.2
2017-Aug-17 15:30N 53°42' W 000°14'4 8.3
2017-Aug-17 15:00N 53°39' W 000°10'510.7
2017-Aug-17 14:30N 53°36' W 000°02'  
2017-Aug-14 18:09N 53°36' E 000°26'0 0.0
2017-Aug-14 17:51N 53°36' E 000°26'0 0.0
2017-Aug-14 07:03N 53°36' E 000°26'0 0.1
2017-Aug-14 06:41N 53°36' E 000°26'10 9.1
2017-Aug-14 05:38N 53°45' E 000°20'711.5
2017-Aug-14 05:02N 53°52' E 000°19'011.2
2017-Aug-14 05:00N 53°52' E 000°19'710.8
2017-Aug-14 04:20N 53°59' E 000°18'310.4
2017-Aug-14 04:00N 54°03' E 000°18'510.3
2017-Aug-14 03:30N 54°08' E 000°17'5 9.9
2017-Aug-14 03:00N 54°13' E 000°16'4 7.6
2017-Aug-14 02:30N 54°16' E 000°14'2 3.3
2017-Aug-14 02:01N 54°16' E 000°11'5 9.5
2017-Aug-14 01:30N 54°20' E 000°06'5 9.3
2017-Aug-14 01:00N 54°24' E 000°02'4 8.6
2017-Aug-14 00:30N 54°27' W 000°02'4 7.9
2017-Aug-14 00:01N 54°30' W 000°06'4 8.3
2017-Aug-13 23:30N 54°34' W 000°11'5 9.3
2017-Aug-13 23:00N 54°37' W 000°17'31 1.3
2017-Aug-12 23:02N 54°38' W 001°09'3 7.8
2017-Aug-12 22:41N 54°40' W 001°07'2 9.5
2017-Aug-12 22:30N 54°41' W 001°05'3 4.2
2017-Aug-12 21:52N 54°42' W 001°01'0 0.0
2017-Aug-12 21:22N 54°42' W 001°01'0 0.0
2017-Aug-12 20:52N 54°42' W 001°01'0 0.0
2017-Aug-12 20:25N 54°42' W 001°01'0 0.0
2017-Aug-12 19:59N 54°42' W 001°01'0 0.0
2017-Aug-12 19:17N 54°42' W 001°01'0 0.0
2017-Aug-12 18:59N 54°42' W 001°01'0 0.0
2017-Aug-12 18:29N 54°42' W 001°01'0 0.0
2017-Aug-12 17:59N 54°42' W 001°01'0 0.0
2017-Aug-12 17:17N 54°42' W 001°01'0 0.0
2017-Aug-12 16:35N 54°42' W 001°01'0 0.0
2017-Aug-12 16:23N 54°42' W 001°01'0 0.0
2017-Aug-12 15:38N 54°42' W 001°01'0 0.0
2017-Aug-12 15:23N 54°42' W 001°01'0 0.0
2017-Aug-12 14:53N 54°42' W 001°01'0 0.1
2017-Aug-12 14:23N 54°42' W 001°01'0 0.1
2017-Aug-12 12:38N 54°42' W 001°01'0 0.1
2017-Aug-12 12:26N 54°42' W 001°01'  
Track history (hours):
 
Tides and Currents Weather Stations Pressure Air Temp Water Temp Dewpoint Dewpoint Depression Visibility Wind Speed Wind Dir Waves Ship Positions

Stolt Shearwater

Last reported at 2017-Aug-22 10:52 UTC. Time now 2017-Aug-22 11:03 UTC.
Position N 43°18' W 010°11'.

Length 96 m; draft 6.6 m.

Type: Ship (hazmat cat C). MMSI: 319402000.

Date/timePositionNaut miles runAvg speedWind from/ knotsBaromVisibWave heightAir tempDewpointWater temp
2017-Aug-22 10:52N 43°18' W 010°11'511.2
2017-Aug-22 10:24N 43°23' W 010°08'1410.7
2017-Aug-22 09:05N 43°35' W 009°59'111.1
2017-Aug-22 09:00N 43°36' W 009°58'1411.2
2017-Aug-22 07:42N 43°49' W 009°48'211.0
2017-Aug-22 07:28N 43°51' W 009°47'510.8
2017-Aug-22 06:59N 43°56' W 009°44'510.8
2017-Aug-22 06:29N 44°01' W 009°40'3810.7
2017-Aug-22 02:54N 44°34' W 009°14'22210.4
2017-Aug-21 05:33N 47°49' W 006°40'610.8
2017-Aug-21 04:58N 47°55' W 006°36'1010.4
2017-Aug-21 03:58N 48°04' W 006°28'10 9.9
2017-Aug-21 02:58N 48°13' W 006°22'11 9.2
2017-Aug-21 01:48N 48°23' W 006°15'118 9.5
2017-Aug-20 13:23N 49°37' W 003°56'410.5
2017-Aug-20 12:59N 49°40' W 003°50'711.3
2017-Aug-20 12:21N 49°43' W 003°41'411.7
2017-Aug-20 12:00N 49°45' W 003°35'612.0
2017-Aug-20 11:30N 49°48' W 003°27'612.1
2017-Aug-20 11:00N 49°51' W 003°19'612.0
2017-Aug-20 10:30N 49°54' W 003°11'611.7
2017-Aug-20 10:00N 49°57' W 003°03'611.3
2017-Aug-20 09:30N 49°60' W 002°55'510.7
2017-Aug-20 09:00N 50°01' W 002°47'33 8.4
2017-Aug-20 05:04N 50°10' W 001°57'1 8.4
2017-Aug-20 04:54N 50°10' W 001°55'4 8.7
2017-Aug-20 04:27N 50°11' W 001°49'4 9.4
2017-Aug-20 04:00N 50°13' W 001°43'510.1
2017-Aug-20 03:31N 50°14' W 001°35'4712.4
2017-Aug-19 23:43N 50°27' W 000°24'211.8
2017-Aug-19 23:30N 50°27' W 000°21'611.5
2017-Aug-19 23:00N 50°29' W 000°12'510.9
2017-Aug-19 22:30N 50°30' W 000°04'510.5
2017-Aug-19 22:00N 50°31' E 000°04'510.2
2017-Aug-19 21:30N 50°33' E 000°12'5 9.5
2017-Aug-19 20:59N 50°34' E 000°19'4 9.0
2017-Aug-19 20:30N 50°36' E 000°26'4 8.6
2017-Aug-19 20:00N 50°37' E 000°32'4 8.1
2017-Aug-19 19:30N 50°39' E 000°38'4 8.1
2017-Aug-19 19:00N 50°41' E 000°43'4 8.1
2017-Aug-19 18:30N 50°44' E 000°48'4 8.7
2017-Aug-19 18:00N 50°47' E 000°53'1610.2
2017-Aug-19 16:28N 50°56' E 001°13'511.4
2017-Aug-19 16:00N 50°60' E 001°19'611.4
2017-Aug-19 15:30N 51°03' E 001°26'510.9
2017-Aug-19 15:01N 51°07' E 001°33'1010.0
2017-Aug-19 14:00N 51°14' E 001°45'5 9.5
2017-Aug-19 13:30N 51°18' E 001°48'5 9.4
2017-Aug-19 13:00N 51°22' E 001°51'5 9.1
2017-Aug-19 12:30N 51°26' E 001°55'4 8.9
2017-Aug-19 12:00N 51°29' E 001°60'4 8.8
2017-Aug-19 11:31N 51°32' E 002°05'5 8.7
2017-Aug-19 10:59N 51°35' E 002°10'4 9.0
2017-Aug-19 10:30N 51°39' E 002°15'7310.9
2017-Aug-19 03:51N 52°51' E 002°05'412.3
2017-Aug-19 03:30N 52°54' E 001°60'612.2
2017-Aug-19 03:00N 52°57' E 001°51'611.8
2017-Aug-19 02:30N 53°00' E 001°43'611.6
2017-Aug-19 02:00N 53°04' E 001°36'611.1
2017-Aug-19 01:31N 53°07' E 001°29'610.8
2017-Aug-19 01:00N 53°11' E 001°21'510.6
2017-Aug-19 00:30N 53°14' E 001°14'5210.3
2017-Aug-18 19:30N 53°36' W 000°04'611.2
2017-Aug-18 19:00N 53°39' W 000°12'5 9.8
2017-Aug-18 18:30N 53°44' W 000°15'0 0.0
2017-Aug-18 18:00N 53°44' W 000°15'0 0.0
2017-Aug-18 17:29N 53°44' W 000°15'0 0.0
2017-Aug-18 16:59N 53°44' W 000°15'0 0.0
2017-Aug-18 16:29N 53°44' W 000°15'0 0.0
2017-Aug-18 15:59N 53°44' W 000°15'0 0.0
2017-Aug-18 15:29N 53°44' W 000°15'0 0.0
2017-Aug-18 14:59N 53°44' W 000°15'0 0.0
2017-Aug-18 14:29N 53°44' W 000°15'0 0.0
2017-Aug-18 13:30N 53°44' W 000°15'0 0.0
2017-Aug-18 13:00N 53°44' W 000°15'0 0.0
2017-Aug-18 12:30N 53°44' W 000°15'0 0.0
2017-Aug-18 11:59N 53°44' W 000°15'0 0.0
2017-Aug-18 11:30N 53°44' W 000°15'0 0.0
2017-Aug-18 11:00N 53°44' W 000°15'0 0.0
2017-Aug-18 10:30N 53°44' W 000°15'0 0.0
2017-Aug-18 10:00N 53°44' W 000°15'0 0.0
2017-Aug-18 09:30N 53°44' W 000°15'0 0.0
2017-Aug-18 09:00N 53°44' W 000°15'0 0.0
2017-Aug-18 08:30N 53°44' W 000°15'0 0.0
2017-Aug-18 08:00N 53°44' W 000°15'0 0.0
2017-Aug-18 07:30N 53°44' W 000°15'0 0.0
2017-Aug-18 07:00N 53°44' W 000°15'0 0.0
2017-Aug-18 06:30N 53°44' W 000°15'0 0.0
2017-Aug-18 06:00N 53°44' W 000°15'0 0.0
2017-Aug-18 05:30N 53°44' W 000°15'0 0.0
2017-Aug-18 05:00N 53°44' W 000°15'0 0.0
2017-Aug-18 04:30N 53°44' W 000°15'0 0.0
2017-Aug-18 04:00N 53°44' W 000°15'0 0.0
2017-Aug-18 03:30N 53°44' W 000°15'0 0.0
2017-Aug-18 03:00N 53°44' W 000°15'0 0.0
2017-Aug-18 02:30N 53°44' W 000°15'0 0.0
2017-Aug-18 02:00N 53°44' W 000°15'0 0.0
2017-Aug-18 01:30N 53°44' W 000°15'0 0.0
2017-Aug-18 01:00N 53°44' W 000°15'0 0.0
2017-Aug-18 00:30N 53°44' W 000°15'0 0.0
2017-Aug-18 00:00N 53°44' W 000°15'0 0.0
2017-Aug-17 23:30N 53°44' W 000°15'0 0.0
2017-Aug-17 23:00N 53°44' W 000°15'0 0.0
2017-Aug-17 22:30N 53°44' W 000°15'0 0.0
2017-Aug-17 22:00N 53°44' W 000°15'0 0.0
2017-Aug-17 21:30N 53°44' W 000°15'0 0.0
2017-Aug-17 21:00N 53°44' W 000°15'0 0.0
2017-Aug-17 20:30N 53°44' W 000°15'0 0.0
2017-Aug-17 20:00N 53°44' W 000°15'0 0.0
2017-Aug-17 19:30N 53°44' W 000°15'0 0.0
2017-Aug-17 19:00N 53°44' W 000°15'0 0.0
2017-Aug-17 18:30N 53°44' W 000°15'0 0.0
2017-Aug-17 17:59N 53°44' W 000°15'0 0.0
2017-Aug-17 17:29N 53°44' W 000°15'0 0.0
2017-Aug-17 16:59N 53°44' W 000°15'0 0.0
2017-Aug-17 16:29N 53°44' W 000°15'0 0.0
2017-Aug-17 16:00N 53°44' W 000°15'2 3.2
2017-Aug-17 15:30N 53°42' W 000°14'4 8.3
2017-Aug-17 15:00N 53°39' W 000°10'510.7
2017-Aug-17 14:30N 53°36' W 000°02'  
2017-Aug-14 18:09N 53°36' E 000°26'0 0.0
2017-Aug-14 17:51N 53°36' E 000°26'0 0.0
2017-Aug-14 07:03N 53°36' E 000°26'0 0.1
2017-Aug-14 06:41N 53°36' E 000°26'10 9.1
2017-Aug-14 05:38N 53°45' E 000°20'711.5
2017-Aug-14 05:02N 53°52' E 000°19'011.2
2017-Aug-14 05:00N 53°52' E 000°19'710.8
2017-Aug-14 04:20N 53°59' E 000°18'310.4
2017-Aug-14 04:00N 54°03' E 000°18'510.3
2017-Aug-14 03:30N 54°08' E 000°17'5 9.9
2017-Aug-14 03:00N 54°13' E 000°16'4 7.6
2017-Aug-14 02:30N 54°16' E 000°14'2 3.3
2017-Aug-14 02:01N 54°16' E 000°11'5 9.5
2017-Aug-14 01:30N 54°20' E 000°06'5 9.3
2017-Aug-14 01:00N 54°24' E 000°02'4 8.6
2017-Aug-14 00:30N 54°27' W 000°02'4 7.9
2017-Aug-14 00:01N 54°30' W 000°06'4 8.3
2017-Aug-13 23:30N 54°34' W 000°11'5 9.3
2017-Aug-13 23:00N 54°37' W 000°17'31 1.3
2017-Aug-12 23:02N 54°38' W 001°09'3 7.8
2017-Aug-12 22:41N 54°40' W 001°07'2 9.5
2017-Aug-12 22:30N 54°41' W 001°05'3 4.2
2017-Aug-12 21:52N 54°42' W 001°01'0 0.0
2017-Aug-12 21:22N 54°42' W 001°01'0 0.0
2017-Aug-12 20:52N 54°42' W 001°01'0 0.0
2017-Aug-12 20:25N 54°42' W 001°01'0 0.0
2017-Aug-12 19:59N 54°42' W 001°01'0 0.0
2017-Aug-12 19:17N 54°42' W 001°01'0 0.0
2017-Aug-12 18:59N 54°42' W 001°01'0 0.0
2017-Aug-12 18:29N 54°42' W 001°01'0 0.0
2017-Aug-12 17:59N 54°42' W 001°01'0 0.0
2017-Aug-12 17:17N 54°42' W 001°01'0 0.0
2017-Aug-12 16:35N 54°42' W 001°01'0 0.0
2017-Aug-12 16:23N 54°42' W 001°01'0 0.0
2017-Aug-12 15:38N 54°42' W 001°01'0 0.0
2017-Aug-12 15:23N 54°42' W 001°01'0 0.0
2017-Aug-12 14:53N 54°42' W 001°01'0 0.1
2017-Aug-12 14:23N 54°42' W 001°01'0 0.1
2017-Aug-12 12:38N 54°42' W 001°01'0 0.1
2017-Aug-12 12:26N 54°42' W 001°01'  

Dump ship's entire track history